• Join FlightAware (Why Join?)
  • Login
  • US Flag 
12:46AM EDT


 

Airport Tracker/Info


-or-


 

Live Flight TrackerFlight Track Log ✈ VH-SFM ✈ 21-Apr-2013 ✈ YSBK / BWU - YSBK / BWU

Flight Track Log - Related Links

Times and Time Zones

All times are in EDT time to prevent confusion due to time zone crossing. See the VH-SFM flight status page for this flight to view local times or setup timezone preferences in your user account.

Time Position Orientation Groundspeed Altitude Reporting Facility
EDT Latitude Longitude Course Direction KTS MPH feet Rate Location/Type
01:37AM -33.7370 151.0685 38° Northeast 98 113 1,700  Level Aus ATC (RADAR)
01:37AM -33.7306 151.0746 38° Northeast 90 104 2,100 480 Climbing Aus ATC (RADAR)
01:38AM -33.7182 151.0850 35° Northeast 94 108 2,200 60 Climbing Aus ATC (RADAR)
01:39AM -33.6990 151.1002 33° Northeast 97 112 2,200 60 Level Aus ATC (RADAR)
01:39AM -33.6970 151.1211 83° East 104 120 2,300  Climbing Aus ATC (RADAR)
01:41AM -33.6994 151.1669 94° East 109 125 2,300 -120 Level Aus ATC (RADAR)
01:42AM -33.6996 151.2061 90° East 105 121 2,100 -240 Descending Aus ATC (RADAR)
01:42AM -33.6993 151.2147 88° East 101 116 2,000 -480 Descending Aus ATC (RADAR)
01:42AM -33.6994 151.2356 90° East 102 117 1,700 -420 Descending Aus ATC (RADAR)
01:43AM -33.7036 151.2692 99° East 103 119 1,400 -120 Descending Aus ATC (RADAR)
01:44AM -33.7136 151.2879 123° Southeast 100 115 1,500 60 Climbing Aus ATC (RADAR)
01:45AM -33.7346 151.2967 161° South 101 116 1,600 60 Climbing Aus ATC (RADAR)
01:46AM -33.7492 151.2864 211° Southwest 105 121 1,600  Level Aus ATC (RADAR)
01:47AM -33.7779 151.2663 210° Southwest 109 125 1,600  Level Aus ATC (RADAR)
01:47AM -33.7844 151.2619 209° Southwest 108 124 1,600  Level Aus ATC (RADAR)
01:48AM -33.7996 151.2506 212° Southwest 109 125 1,600 -120 Level Aus ATC (RADAR)
01:49AM -33.8277 151.2296 212° Southwest 108 124 1,500 -120 Descending Aus ATC (RADAR)
01:49AM -33.8404 151.2205 211° Southwest 93 107 1,500  Level Aus ATC (RADAR)
01:50AM -33.8453 151.2256 139° Southeast 82 94 1,500  Level Aus ATC (RADAR)
01:51AM -33.8537 151.2242 188° South 84 97 1,500 60 Level Aus ATC (RADAR)
01:52AM -33.8523 151.2190 288° West 90 104 1,600 60 Climbing Aus ATC (RADAR)
01:52AM -33.8530 151.2274 96° East 91 105 1,600 120 Level Aus ATC (RADAR)
01:53AM -33.8450 151.2436 59° Northeast 93 107 1,700  Climbing Aus ATC (RADAR)
01:54AM -33.8302 151.2728 59° Northeast 103 119 1,600 -120 Descending Aus ATC (RADAR)
01:54AM -33.8229 151.2906 64° Northeast 99 114 1,600 -120 Level Aus ATC (RADAR)
01:55AM -33.8133 151.3223 70° East 102 117 1,500 -420 Descending Aus ATC (RADAR)
01:56AM -33.8196 151.3092 240° Southwest 106 122 900 -900 Descending Aus ATC (RADAR)
01:59AM -33.8893 151.2737 204° Southwest 500 -120 Descending Aus ATC (Calculated)
02:01AM -33.9132 151.2610 204° Southwest  Level FlightAware Approximate
02:02AM -33.9364 151.2487 204° Southwest  Level FlightAware Approximate
02:03AM -33.9595 151.2365 204° Southwest  Level FlightAware Approximate
02:04AM -33.9827 151.2242 204° Southwest  Level FlightAware Approximate
02:05AM -34.0059 151.2120 204° Southwest  Level FlightAware Approximate
02:06AM -34.0290 151.1997 204° Southwest  Level FlightAware Approximate
02:06AM -34.0711 151.1248 110° East 500  Level Aus ATC (Calculated)
02:08AM -34.0818 151.1597 110° East  Level FlightAware Approximate
02:09AM -34.0906 151.1883 110° East  Level FlightAware Approximate
02:10AM -34.0818 151.1597 290° West  Level FlightAware Approximate
02:11AM -34.0906 151.1883 110° East  Level FlightAware Approximate
02:12AM -34.0947 151.1588 224° Southwest  Level FlightAware Approximate
02:13AM -34.1130 151.1376 224° Southwest  Level FlightAware Approximate
02:14AM -34.1312 151.1165 224° Southwest  Level FlightAware Approximate
02:15AM -34.1495 151.0953 224° Southwest  Level FlightAware Approximate
02:15AM -34.2527 150.9753 360° North 3,000  Level Aus ATC (Calculated)
02:17AM -34.2084 150.9753 North  Level FlightAware Approximate
02:18AM -34.2337 150.9753 180° South  Level FlightAware Approximate
02:19AM -34.2590 150.9753 180° South  Level FlightAware Approximate
02:20AM -34.2337 150.9753 North  Level FlightAware Approximate
02:21AM -34.2520 150.9727 289° West  Level FlightAware Approximate
02:22AM -34.2438 150.9437 289° West  Level FlightAware Approximate
02:22AM -34.2000 150.7883 109° East 3,000  Level Aus ATC (Calculated)
02:23AM -34.2357 150.9147 289° West  Level FlightAware Approximate
02:24AM -34.2275 150.8858 289° West  Level FlightAware Approximate
02:25AM -34.1405 150.7883 North  Level FlightAware Approximate
02:25AM -34.1250 150.7417 137° Southeast 1,800  Level Aus ATC (Calculated)
02:26AM -34.1658 150.7883 180° South  Level FlightAware Approximate
02:27AM -34.1020 150.7701 333° Northwest  Level Estimated
02:28AM -34.1197 150.7482 226° Southwest  Level FlightAware Approximate
02:29AM -34.1374 150.7264 226° Southwest  Level FlightAware Approximate
02:30AM -34.1197 150.7482 33° Northeast  Level Estimated
02:31AM -34.0983 150.7646 32° Northeast  Level FlightAware Approximate
02:32AM -34.0770 150.7810 32° Northeast  Level FlightAware Approximate
02:33AM -34.0556 150.7974 32° Northeast  Level FlightAware Approximate
02:33AM -33.9367 150.8883 82° East  Level Aus ATC (Calculated)
02:34AM -33.9244 150.9884 291° West  Level Aus ATC (Calculated)
02:35AM -33.8924 150.8883 North  Level FlightAware Approximate
02:36AM -33.9244 150.9883 262° West  Level Estimated
02:37AM -33.9244 150.9883 262° West  Level Estimated
02:38AM -33.9244 150.9883 82° East  Level Estimated
02:39AM -33.9244 150.9883 55° Northeast  Level Estimated
02:40AM -33.9244 150.9883 55° Northeast  Level Estimated
02:41AM -33.9244 150.9883 55° Northeast  Level Estimated
02:42AM -33.9244 150.9883 82° East  Level Estimated
02:43AM -33.9244 150.9883 82° East  Level Estimated
02:44AM -33.9244 150.9883 82° East  Level Estimated
02:45AM -33.9244 150.9883 82° East  Level Estimated
02:46AM -33.9244 150.9883 82° East  Level Estimated
02:47AM -33.9244 150.9883 82° East  Level Estimated
02:48AM -33.9244 150.9883 82° East  Level Estimated
02:49AM -33.9244 150.9883 82° East  Level Estimated